• Join FlightAware (Why Join?)
  • Login
  • US Flag 
02:34AM EST


 

Airport Tracker/Info


-or-


 

Live Flight TrackerFlight Track Log ✈ B-2086 ✈ 09-Apr-2013 ✈ EDDF / FRA - ZBAA / PEK

Flight Track Log - Related Links

Times and Time Zones

All times are in EDT time to prevent confusion due to time zone crossing. See the B-2086 flight status page for this flight to view local times or setup timezone preferences in your user account.

Time Position Orientation Groundspeed Altitude Reporting Facility
EDT Latitude Longitude Course Direction KTS MPH feet Rate Location/Type
04:05PM 50.0280 8.5070 263° West 184 212 2,800  Level FlightAware
04:06PM 50.0300 8.4690 275° West 183 211 4,200 2,100 Climbing FlightAware
04:06PM 50.0310 8.4480 274° West 202 232 4,400 1,320 Climbing FlightAware
04:07PM 50.0410 8.4100 292° West 241 277 5,100 2,040 Climbing FlightAware
04:07PM 50.0640 8.3830 323° Northwest 262 302 6,100 2,460 Climbing FlightAware
04:07PM 50.0940 8.3480 323° Northwest 289 333 7,400 2,760 Climbing FlightAware
04:08PM 50.1130 8.3320 332° Northwest 302 348 8,200 3,360 Climbing FlightAware
04:08PM 50.1260 8.3290 352° North 307 353 8,800 3,360 Climbing FlightAware
04:08PM 50.1550 8.3380 11° North 321 369 9,900 3,000 Climbing FlightAware
04:09PM 50.2180 8.3700 18° North 356 410 11,800 3,120 Climbing FlightAware
04:10PM 50.2800 8.4030 19° North 366 421 14,100 3,120 Climbing FlightAware
04:10PM 50.3390 8.4730 37° Northeast 381 438 16,300 2,820 Climbing FlightAware
04:11PM 50.3830 8.5670 54° Northeast 404 465 18,100 2,640 Climbing FlightAware
04:12PM 50.4340 8.6830 55° Northeast 414 476 20,100 2,580 Climbing FlightAware
04:12PM 50.4770 8.7830 56° Northeast 426 490 21,800 1,920 Climbing FlightAware
04:13PM 50.5230 8.8880 55° Northeast 443 510 22,700 1,380 Climbing FlightAware
04:14PM 50.5770 9.0120 56° Northeast 462 532 23,800 1,740 Climbing FlightAware
04:14PM 50.6280 9.1290 55° Northeast 467 537 25,200 1,740 Climbing FlightAware
04:17PM 50.8132 9.4952 51° Northeast  Level Estimated
04:17PM 50.8360 9.6150 51° Northeast 492 566 29,900  Level FlightAware
04:18PM 50.8790 9.7270 59° Northeast 484 557 31,200 1,620 Climbing FlightAware
04:19PM 50.9240 9.8700 63° Northeast 490 564 32,100 1,260 Climbing FlightAware
04:19PM 50.9710 10.0130 62° Northeast 492 566 33,000 600 Climbing FlightAware
04:20PM 51.0140 10.1370 61° Northeast 497 572 33,000  Level FlightAware
04:21PM 51.0550 10.2610 62° Northeast 500 575 33,000  Level FlightAware
04:22PM 51.1160 10.4470 62° Northeast 498 573 33,000  Level FlightAware
04:23PM 51.1820 10.6480 62° Northeast 497 572 33,000  Level FlightAware
04:23PM 51.2230 10.7760 63° Northeast 497 572 33,000  Level FlightAware
04:24PM 51.2710 10.9230 62° Northeast 496 571 33,000  Level FlightAware
04:25PM 51.3130 11.0540 63° Northeast 495 570 33,000  Level FlightAware
04:25PM 51.3590 11.1990 63° Northeast 492 566 33,000  Level FlightAware
04:26PM 51.4000 11.3280 63° Northeast 490 564 33,000  Level FlightAware
04:27PM 51.4370 11.4450 63° Northeast 490 564 33,000  Level FlightAware
04:28PM 51.4890 11.6090 63° Northeast 491 565 33,000  Level FlightAware
04:28PM 51.5240 11.7200 63° Northeast 491 565 33,000  Level FlightAware
04:29PM 51.5700 11.8700 64° Northeast 488 562 33,000  Level FlightAware
04:29PM 51.6040 11.9800 64° Northeast 487 560 33,000  Level FlightAware
04:32PM 51.7805 12.3647 53° Northeast  Level Estimated
04:32PM 51.7820 12.5640 54° Northeast 490 564 33,000  Level FlightAware
04:33PM 51.8669 12.5551 54° Northeast  Level Estimated
04:33PM 51.8200 12.6910 64° Northeast 491 565 33,000  Level FlightAware
04:34PM 51.8670 12.8460 64° Northeast 490 564 33,000  Level FlightAware
04:35PM 51.9060 12.9780 64° Northeast 492 566 33,000  Level FlightAware
04:35PM 51.9450 13.1120 65° Northeast 492 566 33,000  Level FlightAware
04:36PM 51.9900 13.2640 64° Northeast 491 565 33,000  Level FlightAware
04:37PM 52.0290 13.3980 65° Northeast 491 565 33,000  Level FlightAware
04:37PM 52.0710 13.5430 65° Northeast 491 565 33,000  Level FlightAware
04:38PM 52.1100 13.6770 65° Northeast 493 567 33,000  Level FlightAware
04:39PM 52.1520 13.8230 65° Northeast 494 568 33,000  Level FlightAware
04:39PM 52.1920 13.9630 65° Northeast 495 570 33,000  Level FlightAware
04:40PM 52.2300 14.1000 66° East 496 571 33,000  Level FlightAware
04:41PM 52.2700 14.2390 65° Northeast 498 573 33,000  Level FlightAware
04:42PM 52.3110 14.3870 66° East 499 574 33,000  Level FlightAware
04:42PM 52.3560 14.5470 65° Northeast 501 577 33,000  Level FlightAware
04:43PM 52.3940 14.6850 66° East 502 578 33,000  Level FlightAware
04:44PM 52.4310 14.8220 66° East 497 572 33,000  Level FlightAware
04:44PM 52.4730 14.9750 66° East 496 571 33,000  Level FlightAware
04:45PM 52.5100 15.1130 66° East 497 572 33,000  Level FlightAware
04:46PM 52.5470 15.2490 66° East 500 575 33,000  Level FlightAware
04:46PM 52.5900 15.4100 66° East 500 575 33,000  Level FlightAware
04:47PM 52.6270 15.5480 66° East 500 575 33,000  Level FlightAware
04:48PM 52.6680 15.7030 66° East 502 578 33,000  Level FlightAware
04:49PM 52.7040 15.8420 67° East 501 577 33,000  Level FlightAware
04:49PM 52.7390 15.9750 66° East 503 579 33,000  Level FlightAware
04:50PM 52.7800 16.1340 67° East 504 580 33,000  Level FlightAware
04:51PM 52.8170 16.2760 67° East 504 580 33,000  Level FlightAware
04:51PM 52.8530 16.4190 67° East 505 581 33,000  Level FlightAware
04:52PM 52.8930 16.5760 67° East 506 582 33,000  Level FlightAware
04:53PM 52.9310 16.7260 67° East 507 583 33,000  Level FlightAware
04:53PM 52.9720 16.8870 67° East 507 583 33,000  Level FlightAware
04:54PM 53.0080 17.0320 68° East 506 582 33,000  Level FlightAware
04:55PM 53.0410 17.1690 68° East 507 583 33,000  Level FlightAware
04:56PM 53.0840 17.3400 67° East 507 583 33,000  Level FlightAware
04:56PM 53.1100 17.4490 68° East 507 583 33,000  Level FlightAware
04:57PM 53.1570 17.6440 68° East 506 582 33,000  Level FlightAware
04:58PM 53.1920 17.7880 68° East 506 582 33,000  Level FlightAware
04:58PM 53.2270 17.9330 68° East 506 582 33,000  Level FlightAware
04:59PM 53.2660 18.0980 68° East 503 579 33,000  Level FlightAware
05:00PM 53.3000 18.2430 69° East 503 579 33,000  Level FlightAware
05:00PM 53.3370 18.4000 68° East 504 580 33,000  Level FlightAware
05:01PM 53.3700 18.5450 69° East 504 580 33,000  Level FlightAware
05:02PM 53.4050 18.6940 68° East 505 581 33,000  Level FlightAware
05:03PM 53.4420 18.8580 69° East 501 577 33,000  Level FlightAware
05:03PM 53.4760 19.0040 69° East 500 575 33,000  Level FlightAware
05:04PM 53.5080 19.1510 70° East 498 573 33,000  Level FlightAware
05:05PM 53.5440 19.3080 69° East 496 571 33,000  Level FlightAware
05:05PM 53.5760 19.4510 69° East 496 571 33,000  Level FlightAware
05:06PM 53.6120 19.6170 70° East 498 573 33,000  Level FlightAware
05:07PM 53.6450 19.7660 69° East 497 572 33,000  Level FlightAware
05:07PM 53.6730 19.8940 70° East 496 571 33,000  Level FlightAware
05:08PM 53.7090 20.0620 70° East 498 573 33,000  Level FlightAware
05:09PM 53.7400 20.2070 70° East 499 574 33,000  Level FlightAware
05:10PM 53.7770 20.3800 70° East 498 573 33,000  Level FlightAware
05:10PM 53.8080 20.5250 70° East 498 573 33,000  Level FlightAware
05:11PM 53.8430 20.6940 71° East 497 572 33,000  Level FlightAware
05:12PM 53.8730 20.8380 70° East 498 573 33,000  Level FlightAware
05:12PM 53.9030 20.9850 71° East 497 572 33,000  Level FlightAware
05:13PM 53.9380 21.1530 70° East 496 571 33,000  Level FlightAware
05:14PM 53.9680 21.3020 71° East 495 570 33,000  Level FlightAware
05:14PM 54.0000 21.4600 71° East 495 570 33,000  Level FlightAware
05:15PM 54.0300 21.6100 71° East 494 568 33,000  Level FlightAware
05:16PM 54.0590 21.7580 71° East 493 567 33,000  Level FlightAware
05:17PM 54.0920 21.9240 71° East 494 568 33,000  Level FlightAware
05:17PM 54.1200 22.0710 72° East 496 571 33,000  Level FlightAware
05:18PM 54.1520 22.2350 72° East 496 571 33,000  Level FlightAware
05:19PM 54.1800 22.3830 72° East 496 571 33,000  Level FlightAware
05:19PM 54.2050 22.5130 72° East 496 571 33,000  Level FlightAware
05:20PM 54.2410 22.7000 72° East 497 572 33,000  Level FlightAware
05:21PM 54.2690 22.8500 72° East 498 573 33,000  Level FlightAware
05:21PM 54.2960 22.9950 72° East 499 574 33,000  Level FlightAware
05:22PM 54.3260 23.1670 73° East 497 572 33,000  Level FlightAware
05:23PM 54.3440 23.2910 76° East 498 573 33,000  Level FlightAware
05:24PM 54.3740 23.4920 76° East 499 574 33,000  Level FlightAware
05:24PM 54.3980 23.6490 75° East 501 577 33,000  Level FlightAware
05:27PM 54.5535 24.1562 62° Northeast  Level Estimated
05:28PM 54.6209 24.3796 62° Northeast  Level Estimated
05:29PM 54.6879 24.6036 63° Northeast  Level Estimated
05:30PM 54.7545 24.8285 63° Northeast  Level Estimated
05:31PM 54.8207 25.0540 63° Northeast  Level Estimated
05:31PM 54.5990 25.0230 63° Northeast 507 583 33,000  Level FlightAware
05:31PM 54.6210 25.1830 77° East 508 585 33,000  Level FlightAware
05:32PM 54.6400 25.3260 77° East 509 586 33,000  Level FlightAware
05:33PM 54.6610 25.4840 77° East 508 585 33,000  Level FlightAware
05:34PM 54.6920 25.7400 78° East 508 585 33,000  Level FlightAware
05:35PM 54.7300 26.0090 76° East 509 586 33,000  Level FlightAware
05:35PM 54.7490 26.1410 76° East 508 585 33,000  Level FlightAware
05:36PM 54.7750 26.3450 77° East 508 585 33,000  Level FlightAware
05:37PM 54.7940 26.4920 77° East 509 586 33,000  Level FlightAware
05:37PM 54.8120 26.6270 77° East 509 586 33,000  Level FlightAware
05:38PM 54.8300 26.7620 77° East 509 586 33,000  Level FlightAware
05:39PM 54.8530 26.9320 77° East 509 586 33,000  Level FlightAware
05:40PM 54.8710 27.0670 77° East 509 586 33,000  Level FlightAware
05:40PM 54.8890 27.2030 77° East 509 586 33,000  Level FlightAware
05:41PM 54.9070 27.3390 77° East 509 586 33,000  Level FlightAware
05:42PM 54.9290 27.5080 77° East 509 586 33,000  Level FlightAware
05:42PM 54.9470 27.6440 77° East 509 586 33,000  Level FlightAware
05:43PM 54.9650 27.7800 77° East 509 586 33,000  Level FlightAware
05:44PM 54.9830 27.9160 77° East 509 586 33,000  Level FlightAware
05:44PM 55.0010 28.0520 77° East 509 586 33,000  Level FlightAware
05:45PM 55.0190 28.1880 77° East 509 586 33,000  Level FlightAware
05:46PM 55.0420 28.3580 77° East 509 586 33,000  Level FlightAware
05:49PM 55.1942 28.9471 65° Northeast  Level Estimated
05:49PM 55.1550 29.5780 65° Northeast 521 600 33,000  Level FlightAware
05:50PM 55.1740 29.7680 80° East 521 600 33,000  Level FlightAware
05:50PM 55.1910 29.9320 80° East 520 598 33,000  Level FlightAware
05:51PM 55.2040 30.0700 81° East 520 598 33,000  Level FlightAware
05:52PM 55.2300 30.3250 80° East 521 600 33,000  Level FlightAware
05:53PM 55.2440 30.4660 80° East 521 600 33,000  Level FlightAware
05:53PM 55.2580 30.6080 80° East 521 600 33,000  Level FlightAware
05:54PM 55.2720 30.7500 80° East 521 600 33,000  Level FlightAware
05:55PM 55.2870 30.8910 79° East 521 600 33,000  Level FlightAware
05:56PM 55.3040 31.0680 80° East 521 600 33,000  Level FlightAware
05:56PM 55.3190 31.2100 79° East 521 600 33,000  Level FlightAware
05:57PM 55.3330 31.3520 80° East 521 600 33,000  Level FlightAware
05:58PM 55.3470 31.4940 80° East 521 600 33,000  Level FlightAware
05:58PM 55.3610 31.6360 80° East 521 600 33,000  Level FlightAware
05:59PM 55.3790 31.8140 80° East 521 600 33,000  Level FlightAware
05:59PM 55.6240 32.0840 32° Northeast 530 610 33,000  Level FlightAware
06:00PM 55.6750 32.2710 64° Northeast 530 610 33,000  Level FlightAware
06:01PM 55.7180 32.4270 64° Northeast 528 608 33,000  Level FlightAware
06:02PM 55.7570 32.5750 65° Northeast 528 608 33,000  Level FlightAware
06:02PM 55.8050 32.7550 65° Northeast 526 605 33,000  Level FlightAware
06:03PM 55.8490 32.9150 64° Northeast 524 603 33,000  Level FlightAware
06:04PM 55.9030 33.0820 60° Northeast 522 601 33,000  Level FlightAware
06:04PM 55.9540 33.2330 59° Northeast 522 601 33,000  Level FlightAware
06:05PM 56.0040 33.3780 58° Northeast 520 598 33,000  Level FlightAware
06:06PM 56.0600 33.5450 59° Northeast 520 598 33,000  Level FlightAware
06:06PM 56.1090 33.6880 58° Northeast 520 598 33,000  Level FlightAware
06:07PM 56.1660 33.8560 59° Northeast 520 598 33,000  Level FlightAware
06:08PM 56.2150 34.0030 59° Northeast 522 601 33,000  Level FlightAware
06:09PM 56.2620 34.1440 59° Northeast 522 601 33,000  Level FlightAware
06:09PM 56.3200 34.3210 59° Northeast 524 603 33,000  Level FlightAware
06:10PM 56.3690 34.4720 60° Northeast 523 602 33,000  Level FlightAware
06:11PM 56.4220 34.6370 60° Northeast 520 598 33,000  Level FlightAware
06:11PM 56.4700 34.7880 60° Northeast 518 596 33,000  Level FlightAware
06:12PM 56.5170 34.9420 61° Northeast 519 597 33,000  Level FlightAware
06:13PM 56.5590 35.1210 67° East 521 600 33,000  Level FlightAware
06:13PM 56.5950 35.2850 68° East 522 601 33,000  Level FlightAware
06:14PM 56.6350 35.4670 68° East 523 602 33,000  Level FlightAware
06:15PM 56.6700 35.6260 68° East 525 604 33,000  Level FlightAware
06:16PM 56.7060 35.7940 69° East 525 604 33,000  Level FlightAware
06:16PM 56.7460 35.9800 69° East 525 604 33,000  Level FlightAware
06:17PM 56.7810 36.1450 69° East 526 605 33,000  Level FlightAware
06:18PM 56.8190 36.3280 69° East 525 604 33,000  Level FlightAware
06:18PM 56.8530 36.4910 69° East 526 605 33,000  Level FlightAware
06:19PM 56.8890 36.6630 69° East 526 605 33,000  Level FlightAware
06:20PM 56.9290 36.8470 68° East 526 605 33,000  Level FlightAware
06:20PM 56.9630 37.0110 69° East 525 604 33,000  Level FlightAware
06:21PM 57.0020 37.1960 69° East 525 604 33,000  Level FlightAware
06:22PM 57.0370 37.3670 69° East 526 605 33,000  Level FlightAware
06:23PM 57.0710 37.5320 69° East 526 605 33,000  Level FlightAware
06:23PM 57.1140 37.7110 66° East 523 602 33,000  Level FlightAware
06:24PM 57.1690 37.8610 56° Northeast 520 598 33,000  Level FlightAware
06:25PM 57.2270 38.0000 52° Northeast 521 600 33,000  Level FlightAware
06:25PM 57.2930 38.1580 52° Northeast 520 598 33,000  Level FlightAware
06:26PM 57.3530 38.3000 52° Northeast 518 596 33,000  Level FlightAware
06:27PM 57.4190 38.4530 51° Northeast 513 590 33,000  Level FlightAware
06:27PM 57.4780 38.5910 51° Northeast 512 589 33,000  Level FlightAware
06:28PM 57.5370 38.7310 52° Northeast 511 588 33,000  Level FlightAware
06:29PM 57.6010 38.8810 51° Northeast 511 588 33,000  Level FlightAware
06:30PM 57.6580 39.0200 52° Northeast 511 588 33,000  Level FlightAware
06:30PM 57.7250 39.1810 52° Northeast 511 588 33,000  Level FlightAware
06:31PM 57.7730 39.3190 57° Northeast 513 590 33,000  Level FlightAware
06:32PM 57.8130 39.4940 67° East 514 592 33,000  Level FlightAware
06:32PM 57.8520 39.6790 68° East 515 593 33,000  Level FlightAware
06:33PM 57.8870 39.8430 68° East 515 593 33,000  Level FlightAware
06:34PM 57.9180 39.9920 69° East 516 594 33,000  Level FlightAware
06:34PM 57.9520 40.1590 69° East 516 594 33,000  Level FlightAware
06:35PM 57.9910 40.3450 68° East 515 593 33,000  Level FlightAware
06:36PM 58.0240 40.5100 69° East 516 594 33,000  Level FlightAware
06:36PM 58.0620 40.6990 69° East 517 595 33,000  Level FlightAware
06:37PM 58.0960 40.8670 69° East 519 597 33,000  Level FlightAware
06:38PM 58.1270 41.0230 69° East 520 598 33,000  Level FlightAware
06:39PM 58.1670 41.2270 70° East 521 600 33,000  Level FlightAware
06:39PM 58.1990 41.3920 70° East 523 602 33,000  Level FlightAware
06:40PM 58.2370 41.5880 70° East 522 601 33,000  Level FlightAware
06:41PM 58.2710 41.7640 70° East 523 602 33,000  Level FlightAware
06:41PM 58.3010 41.9230 70° East 521 600 33,000  Level FlightAware
06:42PM 58.3400 42.1330 70° East 523 602 33,000  Level FlightAware
06:43PM 58.3720 42.3010 70° East 523 602 33,000  Level FlightAware
06:43PM 58.4070 42.4930 71° East 524 603 33,000  Level FlightAware
06:44PM 58.4410 42.6760 70° East 525 604 33,000  Level FlightAware
06:45PM 58.4730 42.8570 71° East 525 604 33,000  Level FlightAware
06:46PM 58.5080 43.0510 71° East 524 603 33,000  Level FlightAware
06:46PM 58.5390 43.2270 71° East 525 604 33,000  Level FlightAware
06:47PM 58.5710 43.4070 71° East 527 606 33,000  Level FlightAware
06:48PM 58.6030 43.5930 72° East 527 606 33,000  Level FlightAware
06:48PM 58.6310 43.7500 71° East 527 606 33,000  Level FlightAware
06:49PM 58.6580 43.9000 71° East 527 606 33,000  Level FlightAware
06:50PM 58.6850 44.0510 71° East 527 606 33,000  Level FlightAware
06:50PM 58.7190 44.2400 71° East 527 606 33,000  Level FlightAware
06:51PM 58.7460 44.3910 71° East 527 606 33,000  Level FlightAware
06:52PM 58.7910 44.7100 75° East 527 606 33,000  Level FlightAware
06:53PM 58.8220 44.9040 73° East 528 608 33,000  Level FlightAware
06:53PM 58.8520 45.0900 73° East 528 608 33,000  Level FlightAware
06:54PM 58.8790 45.2590 73° East 527 606 33,000  Level FlightAware
06:55PM 58.9070 45.4400 73° East 527 606 33,000  Level FlightAware
06:55PM 58.9390 45.6430 73° East 524 603 33,000  Level FlightAware
06:56PM 58.9710 45.8530 73° East 526 605 33,000  Level FlightAware
06:57PM 58.9930 45.9980 74° East 526 605 33,000  Level FlightAware
06:57PM 59.0290 46.2370 74° East 526 605 33,000  Level FlightAware
06:58PM 59.0550 46.4140 74° East 526 605 33,000  Level FlightAware
06:59PM 59.0800 46.5880 74° East 526 605 33,000  Level FlightAware
07:00PM 59.1070 46.7700 74° East 526 605 33,000  Level FlightAware
07:00PM 59.1300 46.9250 74° East 526 605 33,000  Level FlightAware
07:01PM 59.1530 47.0800 74° East 526 605 33,000  Level FlightAware
07:02PM 59.1750 47.2350 74° East 526 605 33,000  Level FlightAware
07:02PM 59.1980 47.3910 74° East 526 605 33,000  Level FlightAware
07:03PM 59.2270 47.5850 74° East 526 605 33,000  Level FlightAware
07:04PM 59.2490 47.7410 75° East 526 605 33,000  Level FlightAware
07:04PM 59.2720 47.8960 74° East 526 605 33,000  Level FlightAware
07:05PM 59.2950 48.0520 74° East 526 605 33,000  Level FlightAware
07:06PM 59.3230 48.2470 74° East 526 605 33,000  Level FlightAware
07:07PM 59.3460 48.4030 74° East 526 605 33,000  Level FlightAware
07:07PM 59.3690 48.5590 74° East 526 605 33,000  Level FlightAware
07:08PM 59.3920 48.7150 74° East 526 605 33,000  Level FlightAware
07:09PM 59.4150 48.8710 74° East 526 605 33,000  Level FlightAware
07:11PM 59.4449 49.4274 84° East  Level Estimated
07:11PM 59.5130 49.8820 84° East 33,000  Level FlightAware
07:11PM 59.5450 50.1580 77° East 541 623 33,000  Level FlightAware
07:12PM 59.5630 50.3160 77° East 541 623 33,000  Level FlightAware
07:13PM 59.5840 50.5040 77° East 540 621 33,000  Level FlightAware
07:14PM 59.6140 50.7770 78° East 542 624 33,000  Level FlightAware
07:14PM 59.6370 50.9830 77° East 543 625 33,000  Level FlightAware
07:15PM 59.6590 51.1920 78° East 542 624 33,000  Level FlightAware
07:16PM 59.6810 51.4020 78° East 545 627 33,000  Level FlightAware
07:17PM 59.7020 51.6070 78° East 547 629 33,000  Level FlightAware
07:17PM 59.7230 51.8090 78° East 548 631 33,000  Level FlightAware
07:18PM 59.7450 52.0260 79° East 549 632 33,000  Level FlightAware
07:19PM 59.7630 52.2230 80° East 549 632 33,000  Level FlightAware
07:20PM 59.7830 52.5110 82° East 549 632 33,000  Level FlightAware
07:20PM 59.7970 52.7020 82° East 550 633 33,000  Level FlightAware
07:21PM 59.8120 52.9180 82° East 551 634 33,000  Level FlightAware
07:22PM 59.8270 53.1360 82° East 550 633 33,000  Level FlightAware
07:22PM 59.8420 53.3520 82° East 551 634 33,000  Level FlightAware
07:23PM 59.8550 53.5470 82° East 551 634 33,000  Level FlightAware
07:24PM 59.8690 53.7580 82° East 553 636 33,000  Level FlightAware
07:25PM 59.8840 53.9920 83° East 554 638 33,000  Level FlightAware
07:25PM 59.8910 54.1070 83° East 554 638 33,000  Level FlightAware
07:26PM 59.9120 54.4530 83° East 554 638 33,000  Level FlightAware
07:27PM 59.9200 54.5860 83° East 554 638 33,000  Level FlightAware
07:27PM 59.9320 54.7990 83° East 556 640 33,000  Level FlightAware
07:28PM 59.9440 55.0040 83° East 557 641 33,000  Level FlightAware
07:29PM 59.9560 55.2330 84° East 559 643 33,000  Level FlightAware
07:29PM 59.9690 55.4840 84° East 560 644 33,000  Level FlightAware
07:30PM 59.9790 55.6850 84° East 561 646 33,000  Level FlightAware
07:31PM 59.9910 55.9250 84° East 560 644 33,000  Level FlightAware
07:32PM 60.0000 56.1210 85° East 559 643 33,000  Level FlightAware
07:32PM 60.0070 56.2760 85° East 560 644 33,000  Level FlightAware
07:33PM 60.0190 56.5440 85° East 563 648 33,000  Level FlightAware
07:34PM 60.0280 56.7630 85° East 565 650 33,000  Level FlightAware
07:34PM 60.0370 56.9790 85° East 565 650 33,000  Level FlightAware
07:35PM 60.0460 57.2060 85° East 569 655 33,000  Level FlightAware
07:36PM 60.0540 57.4250 86° East 569 655 33,000  Level FlightAware
07:36PM 60.0590 57.5880 86° East 569 655 33,000  Level FlightAware
07:37PM 60.0710 57.9250 86° East 570 656 33,000  Level FlightAware
07:38PM 60.0790 58.1580 86° East 570 656 33,000  Level FlightAware
07:39PM 60.0870 58.4040 86° East 570 656 33,000  Level FlightAware
07:39PM 60.0910 58.5470 87° East 570 656 33,000  Level FlightAware
07:40PM 60.0980 58.8010 87° East 569 655 33,000  Level FlightAware
07:41PM 60.1030 59.0060 87° East 571 657 33,000  Level FlightAware
07:42PM 60.1110 59.3520 87° East 574 661 33,000  Level FlightAware
07:43PM 60.1150 59.5710 88° East 575 662 33,000  Level FlightAware
07:43PM 60.1200 59.8460 88° East 578 665 33,000  Level FlightAware
07:44PM 60.1240 60.0230 87° East 581 669 33,000  Level FlightAware
07:45PM 60.1270 60.2830 89° East 582 670 33,000  Level FlightAware
07:46PM 60.1310 60.5420 88° East 580 667 33,000  Level FlightAware
07:46PM 60.1350 60.8020 88° East 581 669 33,000  Level FlightAware
07:47PM 60.1380 60.9860 88° East 581 669 33,000  Level FlightAware
07:48PM 60.1420 61.2150 88° East 581 669 33,000  Level FlightAware
07:49PM 60.1450 61.3990 88° East 581 669 33,000  Level FlightAware
07:49PM 60.1480 61.5820 88° East 581 669 33,000  Level FlightAware
07:50PM 60.1510 61.7660 88° East 581 669 33,000  Level FlightAware
07:51PM 60.1550 61.9490 87° East 581 669 33,000  Level FlightAware
07:51PM 60.1590 62.1790 88° East 581 669 33,000  Level FlightAware
07:52PM 60.1620 62.3620 88° East 581 669 33,000  Level FlightAware
07:53PM 60.1650 62.5460 88° East 581 669 33,000  Level FlightAware
07:53PM 60.1680 62.7290 88° East 581 669 33,000  Level FlightAware
07:54PM 60.1710 62.9130 88° East 581 669 33,000  Level FlightAware
07:55PM 60.1370 63.3560 99° East 577 664 33,000  Level FlightAware
07:56PM 60.1370 63.5380 90° East 577 664 33,000  Level FlightAware
07:56PM 60.1370 63.7210 90° East 577 664 33,000  Level FlightAware
07:57PM 60.1370 63.9030 90° East 577 664 33,000  Level FlightAware
07:58PM 60.1370 64.0850 90° East 577 664 33,000  Level FlightAware
07:58PM 60.1370 64.3130 90° East 577 664 33,000  Level FlightAware
07:59PM 60.1370 64.4950 90° East 577 664 33,000  Level FlightAware
08:00PM 60.1370 64.6780 90° East 577 664 33,000  Level FlightAware
08:00PM 60.1370 64.8600 90° East 577 664 33,000  Level FlightAware
08:01PM 60.1370 65.0420 90° East 577 664 33,000  Level FlightAware
08:02PM 60.1370 65.2700 90° East 577 664 33,000  Level FlightAware
08:03PM 60.1370 65.4520 90° East 577 664 33,000  Level FlightAware
08:03PM 60.1370 65.6350 90° East 577 664 33,000 1,380 Level FlightAware
08:04PM 60.0390 66.4370 103° East 571 657 35,000 1,200 Climbing FlightAware
08:05PM 60.0250 66.6920 96° East 573 659 35,000  Level FlightAware
08:05PM 60.0310 66.5760 276° West 574 661 35,000  Level FlightAware
08:06PM 60.0200 66.7910 96° East 574 661 35,000  Level FlightAware
08:07PM 60.0100 66.9710 96° East 574 661 35,000  Level FlightAware
08:08PM 59.9700 67.5870 97° East 575 662 35,000  Level FlightAware
08:08PM 59.9690 67.6040 97° East 574 661 35,000  Level FlightAware
08:09PM 59.9360 68.0970 97° East 574 661 35,000  Level FlightAware
08:10PM 59.9220 68.3080 97° East 35,000  Level FlightAware
08:11PM 59.9070 68.5170 98° East 577 664 35,000  Level FlightAware
08:11PM 59.9450 67.9770 278° West 578 665 35,000  Level FlightAware
08:13PM 59.8730 68.9770 98° East 579 666 35,000  Level FlightAware
08:14PM 59.8730 68.9770 98° East 580 667 35,000  Level FlightAware
08:14PM 59.8140 69.7300 99° East 580 667 35,000  Level FlightAware
08:15PM 59.8000 69.9090 99° East 580 667 35,000  Level FlightAware
08:16PM 59.7850 70.0880 99° East 580 667 35,000  Level FlightAware
08:17PM 59.7740 70.2080 100° East 581 669 35,000  Level FlightAware
08:17PM 59.7360 70.6480 100° East 583 671 35,000  Level FlightAware
08:18PM 59.7190 70.8390 100° East 583 671 35,000  Level FlightAware
08:19PM 59.6940 71.1110 100° East 581 669 35,000  Level FlightAware
08:20PM 59.6670 71.4020 100° East 579 666 35,000  Level FlightAware
08:21PM 59.6430 71.6480 101° East 578 665 35,000  Level FlightAware
08:21PM 59.6270 71.8160 101° East 578 665 35,000  Level FlightAware
08:22PM 59.5940 72.1460 101° East 576 663 35,000  Level FlightAware
08:23PM 59.5770 72.3210 101° East 576 663 35,000  Level FlightAware
08:24PM 59.5490 72.5870 102° East 578 665 35,000  Level FlightAware
08:24PM 59.5250 72.8170 102° East 577 664 35,000  Level FlightAware
08:25PM 59.5030 73.0210 102° East 577 664 35,000  Level FlightAware
08:26PM 59.4800 73.2290 102° East 576 663 35,000  Level FlightAware
08:26PM 59.4600 73.4110 102° East 575 662 35,000  Level FlightAware
08:27PM 59.4370 73.6180 102° East 575 662 35,000  Level FlightAware
08:28PM 59.4060 73.8870 103° East 573 659 35,000  Level FlightAware
08:28PM 59.3830 74.0860 103° East 573 659 35,000  Level FlightAware
08:29PM 59.3590 74.2920 103° East 573 659 35,000  Level FlightAware
08:30PM 59.3300 74.4780 107° East 571 657 35,000  Level FlightAware
08:31PM 59.2690 74.6820 120° Southeast 560 644 35,000  Level FlightAware
08:31PM 59.2010 74.8700 125° Southeast 560 644 35,000  Level FlightAware
08:32PM 59.1430 75.0300 125° Southeast 561 646 35,000  Level FlightAware
08:33PM 59.0940 75.1660 125° Southeast 561 646 35,000  Level FlightAware
08:33PM 59.0290 75.3450 125° Southeast 561 646 35,000  Level FlightAware
08:34PM 58.9460 75.5700 126° Southeast 561 646 35,000  Level FlightAware
08:35PM 58.8790 75.7540 125° Southeast 561 646 35,000  Level FlightAware
08:36PM 58.8290 75.8930 125° Southeast 561 646 35,000  Level FlightAware
08:36PM 58.7780 76.0330 125° Southeast 561 646 35,000  Level FlightAware
08:37PM 58.7270 76.1720 125° Southeast 561 646 35,000  Level FlightAware
08:38PM 58.6640 76.3460 125° Southeast 561 646 35,000  Level FlightAware
08:38PM 58.6130 76.4850 125° Southeast 561 646 35,000  Level FlightAware
08:39PM 58.5630 76.6240 125° Southeast 561 646 35,000  Level FlightAware
08:40PM 58.5120 76.7620 125° Southeast 561 646 35,000  Level FlightAware
08:40PM 58.4620 76.9000 125° Southeast 561 646 35,000  Level FlightAware
08:41PM 58.3980 77.0730 125° Southeast 561 646 35,000  Level FlightAware
08:42PM 58.3480 77.2110 125° Southeast 561 646 35,000  Level FlightAware
08:43PM 58.2970 77.3480 125° Southeast 561 646 35,000  Level FlightAware
08:43PM 58.2460 77.4860 125° Southeast 561 646 35,000  Level FlightAware
08:44PM 58.1960 77.6230 125° Southeast 561 646 35,000  Level FlightAware
08:46PM 58.0460 78.5830 106° East 555 639 35,000  Level FlightAware
08:47PM 57.9930 78.7750 117° Southeast 553 636 35,000  Level FlightAware
08:47PM 57.9480 78.9400 117° Southeast 553 636 35,000  Level FlightAware
08:48PM 57.8990 79.1120 118° Southeast 554 638 35,000  Level FlightAware
08:49PM 57.8510 79.2830 118° Southeast 553 636 35,000  Level FlightAware
08:49PM 57.8110 79.4240 118° Southeast 553 636 35,000  Level FlightAware
08:50PM 57.7540 79.6260 118° Southeast 553 636 35,000  Level FlightAware
08:51PM 57.6950 79.8300 118° Southeast 553 636 35,000  Level FlightAware
08:52PM 57.6450 79.9960 119° Southeast 552 635 35,000  Level FlightAware
08:52PM 57.5920 80.1760 119° Southeast 551 634 35,000  Level FlightAware
08:53PM 57.5420 80.3430 119° Southeast 551 634 35,000  Level FlightAware
08:54PM 57.4920 80.5080 119° Southeast 550 633 35,000  Level FlightAware
08:54PM 57.4370 80.6900 119° Southeast 547 629 35,000  Level FlightAware
08:55PM 57.3860 80.8580 119° Southeast 547 629 35,000  Level FlightAware
08:56PM 57.3290 81.0410 120° Southeast 547 629 35,000  Level FlightAware
08:56PM 57.2790 81.2020 120° Southeast 548 631 35,000  Level FlightAware
08:57PM 57.2220 81.3840 120° Southeast 547 629 35,000  Level FlightAware
08:58PM 57.1720 81.5450 120° Southeast 549 632 35,000  Level FlightAware
08:59PM 57.1210 81.7040 121° Southeast 549 632 35,000  Level FlightAware
08:59PM 57.0680 81.8720 120° Southeast 549 632 35,000  Level FlightAware
09:00PM 57.0130 82.0460 120° Southeast 549 632 35,000  Level FlightAware
09:01PM 56.9610 82.2230 118° Southeast 549 632 35,000  Level FlightAware
09:01PM 56.9130 82.3940 117° Southeast 548 631 35,000  Level FlightAware
09:02PM 56.8670 82.5580 117° Southeast 550 633 35,000  Level FlightAware
09:03PM 56.8200 82.7220 118° Southeast 551 634 35,000  Level FlightAware
09:03PM 56.7680 82.9050 117° Southeast 550 633 35,000  Level FlightAware
09:04PM 56.7140 83.0880 118° Southeast 548 631 35,000  Level FlightAware
09:05PM 56.6670 83.2520 117° Southeast 548 631 35,000  Level FlightAware
09:06PM 56.6190 83.4120 119° Southeast 548 631 35,000  Level FlightAware
09:06PM 56.5660 83.5940 118° Southeast 546 628 35,000  Level FlightAware
09:07PM 56.5180 83.7540 118° Southeast 547 629 35,000  Level FlightAware
09:08PM 56.4630 83.9340 119° Southeast 545 627 35,000  Level FlightAware
09:08PM 56.4150 84.0930 119° Southeast 546 628 35,000  Level FlightAware
09:09PM 56.3670 84.2510 119° Southeast 546 628 35,000  Level FlightAware
09:10PM 56.3120 84.4290 119° Southeast 542 624 35,000  Level FlightAware
09:10PM 56.2640 84.5860 119° Southeast 543 625 35,000  Level FlightAware
09:11PM 56.2090 84.7630 119° Southeast 540 621 35,000  Level FlightAware
09:12PM 56.1740 84.8740 119° Southeast 539 620 35,000  Level FlightAware
09:13PM 56.1010 85.1070 119° Southeast 541 623 35,000  Level FlightAware
09:13PM 56.0490 85.2680 120° Southeast 541 623 35,000  Level FlightAware
09:14PM 55.9990 85.4240 120° Southeast 542 624 35,000  Level FlightAware
09:15PM 55.9510 85.5740 120° Southeast 542 624 35,000  Level FlightAware
09:15PM 55.8940 85.7440 121° Southeast 543 625 35,000  Level FlightAware
09:16PM 55.8440 85.8900 121° Southeast 543 625 35,000  Level FlightAware
09:17PM 55.7850 86.0620 121° Southeast 543 625 35,000  Level FlightAware
09:18PM 55.7300 86.2200 122° Southeast 544 626 35,000  Level FlightAware
09:18PM 55.6860 86.3490 121° Southeast 544 626 35,000  Level FlightAware
09:19PM 55.6240 86.5270 122° Southeast 544 626 35,000  Level FlightAware
09:20PM 55.5650 86.6940 122° Southeast 544 626 35,000  Level FlightAware
09:20PM 55.5070 86.8600 122° Southeast 544 626 35,000  Level FlightAware
09:21PM 55.4520 87.0130 122° Southeast 544 626 35,000  Level FlightAware
09:22PM 55.3960 87.1720 122° Southeast 540 621 35,000  Level FlightAware
09:22PM 55.3430 87.3170 123° Southeast 535 616 35,000  Level FlightAware
09:23PM 55.2880 87.4700 122° Southeast 533 613 35,000  Level FlightAware
09:24PM 55.2300 87.6280 123° Southeast 529 609 35,000  Level FlightAware
09:25PM 55.1740 87.7810 123° Southeast 530 610 35,000  Level FlightAware
09:25PM 55.1150 87.9410 123° Southeast 530 610 35,000  Level FlightAware
09:26PM 55.0650 88.0740 123° Southeast 525 604 35,000  Level FlightAware
09:27PM 55.0100 88.2220 123° Southeast 523 602 35,000  Level FlightAware
09:28PM 54.9350 88.4210 123° Southeast 518 596 35,000  Level FlightAware
09:28PM 54.8790 88.5670 124° Southeast 517 595 35,000  Level FlightAware
09:29PM 54.8280 88.7020 123° Southeast 515 593 35,000  Level FlightAware
09:30PM 54.7710 88.8500 124° Southeast 516 594 35,000  Level FlightAware
09:30PM 54.7110 89.0050 124° Southeast 514 592 35,000  Level FlightAware
09:31PM 54.6610 89.1340 124° Southeast 518 596 35,000  Level FlightAware
09:32PM 54.5990 89.2930 124° Southeast 519 597 35,000  Level FlightAware
09:32PM 54.5540 89.4090 124° Southeast 517 595 35,000  Level FlightAware
09:35PM 54.4121 89.8765 117° Southeast  Level Estimated
09:36PM 54.3438 90.0980 118° Southeast  Level Estimated
09:36PM 54.2710 90.1180 118° Southeast 517 595 35,000  Level FlightAware
09:37PM 54.2070 90.2770 124° Southeast 516 594 35,000  Level FlightAware
09:37PM 54.1640 90.3860 124° Southeast 516 594 35,000  Level FlightAware
09:38PM 54.1180 90.5010 124° Southeast 516 594 35,000  Level FlightAware
09:39PM 54.0300 90.7080 126° Southeast 513 590 35,000  Level FlightAware
09:40PM 53.9740 90.8430 125° Southeast 513 590 35,000  Level FlightAware
09:40PM 53.9280 90.9550 125° Southeast 513 590 35,000  Level FlightAware
09:41PM 53.8700 91.0960 125° Southeast 513 590 35,000  Level FlightAware
09:42PM 53.8240 91.2080 125° Southeast 513 590 35,000  Level FlightAware
09:43PM 53.7200 91.4540 125° Southeast 493 567 35,000  Level FlightAware
09:43PM 53.6750 91.5740 122° Southeast 492 566 35,000  Level FlightAware
09:44PM 53.6230 91.7140 122° Southeast 493 567 35,000  Level FlightAware
09:45PM 53.5820 91.8240 122° Southeast 493 567 35,000  Level FlightAware
09:45PM 53.5410 91.9350 122° Southeast 493 567 35,000  Level FlightAware
09:46PM 53.5000 92.0460 122° Southeast 493 567 35,000  Level FlightAware
09:47PM 53.4480 92.1840 122° Southeast 493 567 35,000  Level FlightAware
09:48PM 53.4070 92.2940 122° Southeast 493 567 35,000  Level FlightAware
09:48PM 53.3660 92.4050 122° Southeast 493 567 35,000  Level FlightAware
09:49PM 53.3250 92.5150 122° Southeast 493 567 35,000  Level FlightAware
09:50PM 53.2730 92.6520 122° Southeast 493 567 35,000  Level FlightAware
09:50PM 53.2320 92.7620 122° Southeast 493 567 35,000  Level FlightAware
09:51PM 53.1910 92.8720 122° Southeast 493 567 35,000  Level FlightAware
09:52PM 53.1500 92.9820 122° Southeast 493 567 35,000  Level FlightAware
09:53PM 53.0990 93.1190 122° Southeast 493 567 35,000  Level FlightAware
09:53PM 53.0580 93.2280 122° Southeast 493 567 35,000  Level FlightAware
09:56PM 52.8983 93.6859 120° Southeast  Level Estimated
09:57PM 52.8245 93.8944 120° Southeast  Level Estimated
09:58PM 52.7504 94.1023 120° Southeast  Level Estimated
09:59PM 52.6759 94.3095 121° Southeast  Level Estimated
10:00PM 52.6011 94.5159 121° Southeast  Level Estimated
10:01PM 52.5259 94.7217 121° Southeast  Level Estimated
10:02PM 52.4504 94.9267 121° Southeast  Level Estimated
10:03PM 52.3745 95.1311 121° Southeast  Level Estimated
10:04PM 52.2982 95.3347 121° Southeast  Level Estimated
10:05PM 52.2216 95.5377 122° Southeast  Level Estimated
10:06PM 52.1447 95.7399 122° Southeast  Level Estimated
10:07PM 52.0674 95.9414 122° Southeast  Level Estimated
10:08PM 51.9898 96.1423 122° Southeast  Level Estimated
10:09PM 51.9118 96.3424 122° Southeast  Level Estimated
10:10PM 51.8335 96.5419 122° Southeast  Level Estimated
10:11PM 51.7548 96.7406 123° Southeast  Level Estimated
10:12PM 51.6759 96.9387 123° Southeast  Level Estimated
10:13PM 51.5966 97.1360 123° Southeast  Level Estimated
10:14PM 51.5169 97.3327 123° Southeast  Level Estimated
10:15PM 51.4370 97.5287 123° Southeast  Level Estimated
10:16PM 51.3567 97.7240 123° Southeast  Level Estimated
10:17PM 51.2760 97.9186 123° Southeast  Level Estimated
10:18PM 51.1951 98.1126 124° Southeast  Level Estimated
10:19PM 51.1138 98.3058 124° Southeast  Level Estimated
10:20PM 51.0322 98.4984 124° Southeast  Level Estimated
10:21PM 50.9504 98.6903 124° Southeast  Level Estimated
10:22PM 50.8681 98.8815 124° Southeast  Level Estimated
10:23PM 50.7856 99.0721 124° Southeast  Level Estimated
10:24PM 50.7028 99.2620 125° Southeast  Level Estimated
10:25PM 50.6197 99.4512 125° Southeast  Level Estimated
10:26PM 50.5362 99.6397 125° Southeast  Level Estimated
10:27PM 50.4525 99.8276 125° Southeast  Level Estimated
10:28PM 50.3685 100.0148 125° Southeast  Level Estimated
10:29PM 50.2841 100.2013 125° Southeast  Level Estimated
10:30PM 50.1995 100.3872 125° Southeast  Level Estimated
10:31PM 50.1145 100.5724 126° Southeast  Level Estimated
10:32PM 50.0293 100.7570 126° Southeast  Level Estimated
10:33PM 49.9438 100.9409 126° Southeast  Level Estimated
10:34PM 49.8580 101.1241 126° Southeast  Level Estimated
10:35PM 49.7719 101.3067 126° Southeast  Level Estimated
10:36PM 49.6855 101.4887 126° Southeast  Level Estimated
10:37PM 49.5988 101.6700 126° Southeast  Level Estimated
10:38PM 49.5119 101.8507 127° Southeast  Level Estimated
10:39PM 49.4246 102.0307 127° Southeast  Level Estimated
10:40PM 49.3371 102.2101 127° Southeast  Level Estimated
10:41PM 49.2493 102.3888 127° Southeast  Level Estimated
10:42PM 49.1613 102.5669 127° Southeast  Level Estimated
10:43PM 49.0729 102.7444 127° Southeast  Level Estimated
10:44PM 48.9843 102.9212 127° Southeast  Level Estimated
10:45PM 48.8955 103.0975 127° Southeast  Level Estimated
10:46PM 48.8063 103.2730 128° Southeast  Level Estimated
10:47PM 48.7169 103.4480 128° Southeast  Level Estimated
10:48PM 48.6272 103.6224 128° Southeast  Level Estimated
10:49PM 48.5373 103.7961 128° Southeast  Level Estimated
10:50PM 48.4471 103.9692 128° Southeast  Level Estimated
10:51PM 48.3567 104.1417 128° Southeast  Level Estimated
10:52PM 48.2660 104.3136 128° Southeast  Level Estimated
10:53PM 48.1750 104.4848 128° Southeast  Level Estimated
10:54PM 48.0838 104.6555 129° Southeast  Level Estimated
10:55PM 47.9923 104.8255 129° Southeast  Level Estimated
10:56PM 47.9006 104.9950 129° Southeast  Level Estimated
10:57PM 47.8086 105.1638 129° Southeast  Level Estimated
10:58PM 47.7164 105.3321 129° Southeast  Level Estimated
10:59PM 47.6239 105.4998 129° Southeast  Level Estimated
11:00PM 47.5312 105.6668 129° Southeast  Level Estimated
11:01PM 47.4383 105.8333 130° Southeast  Level Estimated
11:02PM 47.3451 105.9992 130° Southeast  Level Estimated
11:03PM 47.2517 106.1645 130° Southeast  Level Estimated
11:04PM 47.1580 106.3292 130° Southeast  Level Estimated
11:05PM 47.0641 106.4934 130° Southeast  Level Estimated
11:06PM 46.9700 106.6569 130° Southeast  Level Estimated
11:07PM 46.8756 106.8199 130° Southeast  Level Estimated
11:08PM 46.7810 106.9824 130° Southeast  Level Estimated
11:09PM 46.6862 107.1442 130° Southeast  Level Estimated
11:10PM 46.5911 107.3055 131° Southeast  Level Estimated
11:11PM 46.4959 107.4662 131° Southeast  Level Estimated
11:12PM 46.4004 107.6263 131° Southeast  Level Estimated
11:13PM 46.3046 107.7859 131° Southeast  Level Estimated
11:14PM 46.2087 107.9450 131° Southeast  Level Estimated
11:15PM 46.1125 108.1034 131° Southeast  Level Estimated
11:16PM 46.0162 108.2614 131° Southeast  Level Estimated
11:17PM 45.9196 108.4187 131° Southeast  Level Estimated
11:18PM 45.8228 108.5756 132° Southeast  Level Estimated
11:19PM 45.7257 108.7318 132° Southeast  Level Estimated
11:20PM 45.6285 108.8876 132° Southeast  Level Estimated
11:21PM 45.5310 109.0428 132° Southeast  Level Estimated
11:22PM 45.4334 109.1974 132° Southeast  Level Estimated
11:23PM 45.3355 109.3516 132° Southeast  Level Estimated
11:24PM 45.2374 109.5052 132° Southeast  Level Estimated
11:25PM 45.1391 109.6582 132° Southeast  Level Estimated
11:26PM 45.0407 109.8108 132° Southeast  Level Estimated
11:27PM 44.9420 109.9628 132° Southeast  Level Estimated
11:28PM 44.8431 110.1143 133° Southeast  Level Estimated
11:29PM 44.7440 110.2652 133° Southeast  Level Estimated
11:30PM 44.6447 110.4157 133° Southeast  Level Estimated
11:31PM 44.5452 110.5656 133° Southeast  Level Estimated
11:32PM 44.4455 110.7150 133° Southeast  Level Estimated
11:33PM 44.3457 110.8640 133° Southeast  Level Estimated
11:34PM 44.2456 111.0124 133° Southeast  Level Estimated
11:35PM 44.1454 111.1603 133° Southeast  Level Estimated
11:36PM 44.0449 111.3077 133° Southeast  Level Estimated
11:37PM 43.9443 111.4546 134° Southeast  Level Estimated
11:38PM 43.8434 111.6010 134° Southeast  Level Estimated
11:39PM 43.7424 111.7469 134° Southeast  Level Estimated
11:40PM 43.6413 111.8923 134° Southeast  Level Estimated
11:41PM 43.5399 112.0372 134° Southeast  Level Estimated
11:42PM 43.4383 112.1817 134° Southeast  Level Estimated
11:43PM 43.3366 112.3257 134° Southeast  Level Estimated
11:44PM 43.2346 112.4691 134° Southeast  Level Estimated
11:45PM 43.1325 112.6121 134° Southeast  Level Estimated
11:46PM 43.0303 112.7546 134° Southeast  Level Estimated
11:47PM 42.9278 112.8967 135° Southeast  Level Estimated
11:48PM 42.8252 113.0383 135° Southeast  Level Estimated
11:49PM 42.7224 113.1794 135° Southeast  Level Estimated
11:50PM 42.6194 113.3200 135° Southeast  Level Estimated
11:51PM 42.5163 113.4602 135° Southeast  Level Estimated
11:52PM 42.4129 113.5999 135° Southeast  Level Estimated
11:53PM 42.3094 113.7391 135° Southeast  Level Estimated
11:54PM 42.2058 113.8779 135° Southeast  Level Estimated
11:55PM 42.1020 114.0163 135° Southeast  Level Estimated
11:56PM 41.9980 114.1541 135° Southeast  Level Estimated
11:57PM 41.8938 114.2916 135° Southeast  Level Estimated
11:58PM 41.7895 114.4286 136° Southeast  Level Estimated
11:59PM 41.6851 114.5651 136° Southeast  Level Estimated
12:00AM 41.5804 114.7012 136° Southeast  Level Estimated
12:01AM 41.4756 114.8369 136° Southeast  Level Estimated
12:02AM 41.3707 114.9721 136° Southeast  Level Estimated
12:03AM 41.2655 115.1069 136° Southeast  Level Estimated
12:04AM 41.1603 115.2412 136° Southeast  Level Estimated
12:05AM 41.0548 115.3751 136° Southeast  Level Estimated
12:06AM 40.9493 115.5086 136° Southeast  Level Estimated
12:07AM 40.8435 115.6417 136° Southeast  Level Estimated
12:08AM 40.7376 115.7743 136° Southeast  Level Estimated
12:09AM 40.6316 115.9065 137° Southeast  Level Estimated
12:10AM 40.5254 116.0383 137° Southeast  Level Estimated
12:11AM 40.4191 116.1697 137° Southeast  Level Estimated
12:12AM 40.3126 116.3007 137° Southeast  Level Estimated
12:13AM 40.2060 116.4312 137° Southeast  Level Estimated
12:14AM 40.0992 116.5614 137° Southeast  Level Estimated
12:15AM 40.0801 116.5846 137° Southeast  Level Estimated
12:16AM 40.0801 116.5846 288° West  Level Estimated
12:17AM 40.0801 116.5846 288° West  Level Estimated
12:18AM 40.0801 116.5846 288° West  Level Estimated
12:19AM 40.0801 116.5846 288° West  Level Estimated
12:20AM 40.0801 116.5846 288° West  Level Estimated
12:21AM 40.0801 116.5846 288° West  Level Estimated